sensor_id;sensor_type;location;lat;lon;timestamp;P1;durP1;ratioP1;P2;durP2;ratioP2
32872;SDS011;19224;52.462;16.898;2022-08-21T00:01:32;6.58;;;5.00;;
32872;SDS011;19224;52.462;16.898;2022-08-21T00:04:06;6.62;;;4.50;;
32872;SDS011;19224;52.462;16.898;2022-08-21T00:06:38;7.45;;;4.58;;
32872;SDS011;19224;52.462;16.898;2022-08-21T00:09:09;5.67;;;4.20;;
32872;SDS011;19224;52.462;16.898;2022-08-21T00:11:40;6.33;;;4.75;;
32872;SDS011;19224;52.462;16.898;2022-08-21T00:14:10;7.55;;;5.10;;
32872;SDS011;19224;52.462;16.898;2022-08-21T00:16:43;6.92;;;4.50;;
32872;SDS011;19224;52.462;16.898;2022-08-21T00:19:13;10.63;;;4.97;;
32872;SDS011;19224;52.462;16.898;2022-08-21T00:21:44;6.40;;;4.60;;
32872;SDS011;19224;52.462;16.898;2022-08-21T00:24:14;6.92;;;4.37;;
32872;SDS011;19224;52.462;16.898;2022-08-21T00:26:44;6.72;;;4.20;;
32872;SDS011;19224;52.462;16.898;2022-08-21T00:29:15;8.50;;;4.62;;
32872;SDS011;19224;52.462;16.898;2022-08-21T00:31:46;5.03;;;4.42;;
32872;SDS011;19224;52.462;16.898;2022-08-21T00:34:16;5.95;;;4.12;;
32872;SDS011;19224;52.462;16.898;2022-08-21T00:36:46;6.67;;;4.62;;
32872;SDS011;19224;52.462;16.898;2022-08-21T00:39:17;4.78;;;4.08;;
32872;SDS011;19224;52.462;16.898;2022-08-21T00:41:47;6.87;;;4.58;;
32872;SDS011;19224;52.462;16.898;2022-08-21T00:44:17;6.30;;;4.45;;
32872;SDS011;19224;52.462;16.898;2022-08-21T00:46:47;5.28;;;4.42;;
32872;SDS011;19224;52.462;16.898;2022-08-21T00:49:17;5.25;;;4.20;;
32872;SDS011;19224;52.462;16.898;2022-08-21T00:51:49;6.22;;;4.50;;
32872;SDS011;19224;52.462;16.898;2022-08-21T00:54:26;10.30;;;4.97;;
32872;SDS011;19224;52.462;16.898;2022-08-21T00:57:00;5.55;;;4.40;;
32872;SDS011;19224;52.462;16.898;2022-08-21T00:59:34;6.42;;;4.65;;
32872;SDS011;19224;52.462;16.898;2022-08-21T01:02:07;4.78;;;4.00;;
32872;SDS011;19224;52.462;16.898;2022-08-21T01:04:38;6.10;;;4.35;;
32872;SDS011;19224;52.462;16.898;2022-08-21T01:07:09;5.45;;;4.85;;
32872;SDS011;19224;52.462;16.898;2022-08-21T01:09:40;5.47;;;4.67;;
32872;SDS011;19224;52.462;16.898;2022-08-21T01:12:10;6.72;;;5.08;;
32872;SDS011;19224;52.462;16.898;2022-08-21T01:14:42;6.47;;;4.50;;
32872;SDS011;19224;52.462;16.898;2022-08-21T01:17:15;5.10;;;4.60;;
32872;SDS011;19224;52.462;16.898;2022-08-21T01:19:48;5.65;;;4.95;;
32872;SDS011;19224;52.462;16.898;2022-08-21T01:22:18;6.25;;;5.12;;
32872;SDS011;19224;52.462;16.898;2022-08-21T01:24:48;8.18;;;5.40;;
32872;SDS011;19224;52.462;16.898;2022-08-21T01:27:18;6.83;;;5.50;;
32872;SDS011;19224;52.462;16.898;2022-08-21T01:29:54;6.55;;;5.47;;
32872;SDS011;19224;52.462;16.898;2022-08-21T01:32:29;7.58;;;5.42;;
32872;SDS011;19224;52.462;16.898;2022-08-21T01:34:59;8.30;;;5.65;;
32872;SDS011;19224;52.462;16.898;2022-08-21T01:37:29;8.60;;;5.83;;
32872;SDS011;19224;52.462;16.898;2022-08-21T01:39:59;7.62;;;5.40;;
32872;SDS011;19224;52.462;16.898;2022-08-21T01:42:31;8.25;;;5.92;;
32872;SDS011;19224;52.462;16.898;2022-08-21T01:45:02;9.00;;;6.05;;
32872;SDS011;19224;52.462;16.898;2022-08-21T01:47:35;10.93;;;6.08;;
32872;SDS011;19224;52.462;16.898;2022-08-21T01:50:06;10.05;;;6.60;;
32872;SDS011;19224;52.462;16.898;2022-08-21T01:52:40;8.18;;;6.78;;
32872;SDS011;19224;52.462;16.898;2022-08-21T01:55:11;8.20;;;6.45;;
32872;SDS011;19224;52.462;16.898;2022-08-21T01:57:45;7.55;;;5.95;;
32872;SDS011;19224;52.462;16.898;2022-08-21T02:00:18;7.35;;;6.20;;
32872;SDS011;19224;52.462;16.898;2022-08-21T02:02:51;6.25;;;5.60;;
32872;SDS011;19224;52.462;16.898;2022-08-21T02:05:23;7.12;;;6.15;;
32872;SDS011;19224;52.462;16.898;2022-08-21T02:07:54;7.10;;;5.70;;
32872;SDS011;19224;52.462;16.898;2022-08-21T02:10:26;6.78;;;5.50;;
32872;SDS011;19224;52.462;16.898;2022-08-21T02:12:59;6.10;;;5.50;;
32872;SDS011;19224;52.462;16.898;2022-08-21T02:15:30;6.30;;;5.33;;
32872;SDS011;19224;52.462;16.898;2022-08-21T02:18:00;5.60;;;4.90;;
32872;SDS011;19224;52.462;16.898;2022-08-21T02:20:36;5.92;;;5.33;;
32872;SDS011;19224;52.462;16.898;2022-08-21T02:23:10;5.00;;;4.47;;
32872;SDS011;19224;52.462;16.898;2022-08-21T02:25:41;9.23;;;5.55;;
32872;SDS011;19224;52.462;16.898;2022-08-21T02:28:13;5.08;;;4.30;;
32872;SDS011;19224;52.462;16.898;2022-08-21T02:30:45;4.87;;;4.25;;
32872;SDS011;19224;52.462;16.898;2022-08-21T02:33:17;6.12;;;4.67;;
32872;SDS011;19224;52.462;16.898;2022-08-21T02:35:48;6.35;;;4.42;;
32872;SDS011;19224;52.462;16.898;2022-08-21T02:38:23;6.08;;;4.35;;
32872;SDS011;19224;52.462;16.898;2022-08-21T02:40:56;5.87;;;4.62;;
32872;SDS011;19224;52.462;16.898;2022-08-21T02:43:27;5.17;;;4.53;;
32872;SDS011;19224;52.462;16.898;2022-08-21T02:45:57;6.33;;;4.53;;
32872;SDS011;19224;52.462;16.898;2022-08-21T02:48:29;4.58;;;3.90;;
32872;SDS011;19224;52.462;16.898;2022-08-21T02:51:08;4.80;;;4.05;;
32872;SDS011;19224;52.462;16.898;2022-08-21T02:53:48;5.42;;;4.20;;
32872;SDS011;19224;52.462;16.898;2022-08-21T02:56:19;4.55;;;4.15;;
32872;SDS011;19224;52.462;16.898;2022-08-21T02:58:51;4.58;;;4.12;;
32872;SDS011;19224;52.462;16.898;2022-08-21T03:01:21;6.03;;;4.28;;
32872;SDS011;19224;52.462;16.898;2022-08-21T03:03:52;5.17;;;4.22;;
32872;SDS011;19224;52.462;16.898;2022-08-21T03:06:22;5.45;;;3.90;;
32872;SDS011;19224;52.462;16.898;2022-08-21T03:08:52;4.90;;;4.37;;
32872;SDS011;19224;52.462;16.898;2022-08-21T03:11:23;4.80;;;4.30;;
32872;SDS011;19224;52.462;16.898;2022-08-21T03:13:54;4.50;;;4.10;;
32872;SDS011;19224;52.462;16.898;2022-08-21T03:16:24;6.65;;;4.12;;
32872;SDS011;19224;52.462;16.898;2022-08-21T03:18:54;4.80;;;4.30;;
32872;SDS011;19224;52.462;16.898;2022-08-21T03:21:24;4.67;;;4.17;;
32872;SDS011;19224;52.462;16.898;2022-08-21T03:23:56;4.65;;;3.62;;
32872;SDS011;19224;52.462;16.898;2022-08-21T03:26:26;4.33;;;3.92;;
32872;SDS011;19224;52.462;16.898;2022-08-21T03:28:56;4.42;;;3.67;;
32872;SDS011;19224;52.462;16.898;2022-08-21T03:31:26;4.00;;;3.60;;
32872;SDS011;19224;52.462;16.898;2022-08-21T03:33:59;5.62;;;3.55;;
32872;SDS011;19224;52.462;16.898;2022-08-21T03:36:29;3.77;;;3.25;;
32872;SDS011;19224;52.462;16.898;2022-08-21T03:39:00;3.35;;;2.72;;
32872;SDS011;19224;52.462;16.898;2022-08-21T03:41:30;3.27;;;2.98;;
32872;SDS011;19224;52.462;16.898;2022-08-21T03:44:00;3.08;;;2.87;;
32872;SDS011;19224;52.462;16.898;2022-08-21T03:46:30;2.90;;;2.70;;
32872;SDS011;19224;52.462;16.898;2022-08-21T03:49:00;3.70;;;2.92;;
32872;SDS011;19224;52.462;16.898;2022-08-21T03:51:30;3.00;;;2.70;;
32872;SDS011;19224;52.462;16.898;2022-08-21T03:54:01;2.67;;;2.47;;
32872;SDS011;19224;52.462;16.898;2022-08-21T03:56:31;3.58;;;2.92;;
32872;SDS011;19224;52.462;16.898;2022-08-21T03:59:02;2.70;;;2.50;;
32872;SDS011;19224;52.462;16.898;2022-08-21T04:01:32;3.45;;;2.58;;
32872;SDS011;19224;52.462;16.898;2022-08-21T04:04:03;3.15;;;2.67;;
32872;SDS011;19224;52.462;16.898;2022-08-21T04:06:34;2.60;;;2.40;;
32872;SDS011;19224;52.462;16.898;2022-08-21T04:09:04;2.83;;;2.40;;
32872;SDS011;19224;52.462;16.898;2022-08-21T04:11:35;6.25;;;2.58;;
32872;SDS011;19224;52.462;16.898;2022-08-21T04:14:07;3.95;;;2.27;;
32872;SDS011;19224;52.462;16.898;2022-08-21T04:16:37;3.35;;;2.40;;
32872;SDS011;19224;52.462;16.898;2022-08-21T04:19:09;2.75;;;2.15;;
32872;SDS011;19224;52.462;16.898;2022-08-21T04:21:44;4.20;;;2.75;;
32872;SDS011;19224;52.462;16.898;2022-08-21T04:24:14;4.72;;;1.90;;
32872;SDS011;19224;52.462;16.898;2022-08-21T04:26:44;2.70;;;2.00;;
32872;SDS011;19224;52.462;16.898;2022-08-21T04:29:14;2.47;;;2.10;;
32872;SDS011;19224;52.462;16.898;2022-08-21T04:31:45;6.05;;;1.80;;
32872;SDS011;19224;52.462;16.898;2022-08-21T04:34:15;2.15;;;1.82;;
32872;SDS011;19224;52.462;16.898;2022-08-21T04:36:45;2.67;;;2.02;;
32872;SDS011;19224;52.462;16.898;2022-08-21T04:39:15;4.85;;;2.08;;
32872;SDS011;19224;52.462;16.898;2022-08-21T04:41:45;3.65;;;1.90;;
32872;SDS011;19224;52.462;16.898;2022-08-21T04:44:15;2.62;;;1.40;;
32872;SDS011;19224;52.462;16.898;2022-08-21T04:46:45;1.80;;;1.45;;
32872;SDS011;19224;52.462;16.898;2022-08-21T04:49:15;1.95;;;1.75;;
32872;SDS011;19224;52.462;16.898;2022-08-21T04:51:45;1.80;;;1.60;;
32872;SDS011;19224;52.462;16.898;2022-08-21T04:54:17;1.90;;;1.80;;
32872;SDS011;19224;52.462;16.898;2022-08-21T04:56:51;1.82;;;1.50;;
32872;SDS011;19224;52.462;16.898;2022-08-21T04:59:34;1.50;;;1.40;;
32872;SDS011;19224;52.462;16.898;2022-08-21T05:02:07;3.90;;;1.70;;
32872;SDS011;19224;52.462;16.898;2022-08-21T05:04:40;1.70;;;1.60;;
32872;SDS011;19224;52.462;16.898;2022-08-21T05:07:19;2.20;;;1.70;;
32872;SDS011;19224;52.462;16.898;2022-08-21T05:09:50;2.00;;;1.80;;
32872;SDS011;19224;52.462;16.898;2022-08-21T05:12:22;2.00;;;1.80;;
32872;SDS011;19224;52.462;16.898;2022-08-21T05:14:53;1.95;;;1.80;;
32872;SDS011;19224;52.462;16.898;2022-08-21T05:17:23;1.52;;;1.40;;
32872;SDS011;19224;52.462;16.898;2022-08-21T05:19:53;1.40;;;1.30;;
32872;SDS011;19224;52.462;16.898;2022-08-21T05:22:23;1.62;;;1.52;;
32872;SDS011;19224;52.462;16.898;2022-08-21T05:24:54;1.45;;;1.35;;
32872;SDS011;19224;52.462;16.898;2022-08-21T05:27:26;1.98;;;1.40;;
32872;SDS011;19224;52.462;16.898;2022-08-21T05:29:57;2.42;;;1.70;;
32872;SDS011;19224;52.462;16.898;2022-08-21T05:32:27;1.95;;;1.85;;
32872;SDS011;19224;52.462;16.898;2022-08-21T05:34:58;2.27;;;2.08;;
32872;SDS011;19224;52.462;16.898;2022-08-21T05:37:29;4.50;;;1.92;;
32872;SDS011;19224;52.462;16.898;2022-08-21T05:39:59;3.60;;;2.20;;
32872;SDS011;19224;52.462;16.898;2022-08-21T05:42:32;2.70;;;2.17;;
32872;SDS011;19224;52.462;16.898;2022-08-21T05:45:02;2.83;;;2.55;;
32872;SDS011;19224;52.462;16.898;2022-08-21T05:47:33;2.92;;;2.35;;
32872;SDS011;19224;52.462;16.898;2022-08-21T05:50:03;2.80;;;2.52;;
32872;SDS011;19224;52.462;16.898;2022-08-21T05:52:34;4.25;;;2.60;;
32872;SDS011;19224;52.462;16.898;2022-08-21T05:55:04;5.05;;;2.52;;
32872;SDS011;19224;52.462;16.898;2022-08-21T05:57:35;2.87;;;2.67;;
32872;SDS011;19224;52.462;16.898;2022-08-21T06:00:08;3.00;;;2.70;;
32872;SDS011;19224;52.462;16.898;2022-08-21T06:02:40;2.85;;;2.65;;
32872;SDS011;19224;52.462;16.898;2022-08-21T06:05:10;3.52;;;2.58;;
32872;SDS011;19224;52.462;16.898;2022-08-21T06:07:40;3.80;;;3.00;;
32872;SDS011;19224;52.462;16.898;2022-08-21T06:10:11;2.87;;;2.52;;
32872;SDS011;19224;52.462;16.898;2022-08-21T06:12:41;2.77;;;2.58;;
32872;SDS011;19224;52.462;16.898;2022-08-21T06:15:12;3.10;;;2.80;;
32872;SDS011;19224;52.462;16.898;2022-08-21T06:17:42;3.27;;;2.98;;
32872;SDS011;19224;52.462;16.898;2022-08-21T06:20:12;3.77;;;3.00;;
32872;SDS011;19224;52.462;16.898;2022-08-21T06:22:42;3.45;;;3.00;;
32872;SDS011;19224;52.462;16.898;2022-08-21T06:25:12;3.02;;;2.77;;
32872;SDS011;19224;52.462;16.898;2022-08-21T06:27:42;3.52;;;2.98;;
32872;SDS011;19224;52.462;16.898;2022-08-21T06:30:12;3.40;;;2.83;;
32872;SDS011;19224;52.462;16.898;2022-08-21T06:32:43;3.70;;;2.30;;
32872;SDS011;19224;52.462;16.898;2022-08-21T06:35:15;2.62;;;2.42;;
32872;SDS011;19224;52.462;16.898;2022-08-21T06:37:45;4.83;;;2.75;;
32872;SDS011;19224;52.462;16.898;2022-08-21T06:40:15;4.53;;;2.77;;
32872;SDS011;19224;52.462;16.898;2022-08-21T06:42:45;3.12;;;2.83;;
32872;SDS011;19224;52.462;16.898;2022-08-21T06:45:16;3.37;;;2.90;;
32872;SDS011;19224;52.462;16.898;2022-08-21T06:47:46;3.72;;;3.00;;
32872;SDS011;19224;52.462;16.898;2022-08-21T06:50:17;4.55;;;3.33;;
32872;SDS011;19224;52.462;16.898;2022-08-21T06:52:47;6.03;;;3.33;;
32872;SDS011;19224;52.462;16.898;2022-08-21T06:55:17;4.37;;;3.00;;
32872;SDS011;19224;52.462;16.898;2022-08-21T06:57:47;5.90;;;3.40;;
32872;SDS011;19224;52.462;16.898;2022-08-21T07:00:17;10.75;;;3.58;;
32872;SDS011;19224;52.462;16.898;2022-08-21T07:02:48;4.92;;;3.30;;
32872;SDS011;19224;52.462;16.898;2022-08-21T07:05:19;4.92;;;2.80;;
32872;SDS011;19224;52.462;16.898;2022-08-21T07:07:49;6.87;;;3.67;;
32872;SDS011;19224;52.462;16.898;2022-08-21T07:10:20;5.08;;;3.05;;
32872;SDS011;19224;52.462;16.898;2022-08-21T07:12:52;5.75;;;3.12;;
32872;SDS011;19224;52.462;16.898;2022-08-21T07:15:22;5.60;;;3.10;;
32872;SDS011;19224;52.462;16.898;2022-08-21T07:17:53;8.00;;;3.10;;
32872;SDS011;19224;52.462;16.898;2022-08-21T07:20:25;7.65;;;3.15;;
32872;SDS011;19224;52.462;16.898;2022-08-21T07:22:58;6.00;;;3.12;;
32872;SDS011;19224;52.462;16.898;2022-08-21T07:25:32;5.60;;;2.90;;
32872;SDS011;19224;52.462;16.898;2022-08-21T07:28:02;4.97;;;2.98;;
32872;SDS011;19224;52.462;16.898;2022-08-21T07:30:33;5.70;;;3.08;;
32872;SDS011;19224;52.462;16.898;2022-08-21T07:33:04;6.12;;;3.00;;
32872;SDS011;19224;52.462;16.898;2022-08-21T07:35:34;6.83;;;3.15;;
32872;SDS011;19224;52.462;16.898;2022-08-21T07:38:05;4.00;;;2.90;;
32872;SDS011;19224;52.462;16.898;2022-08-21T07:40:35;5.53;;;3.02;;
32872;SDS011;19224;52.462;16.898;2022-08-21T07:43:07;5.45;;;3.35;;
32872;SDS011;19224;52.462;16.898;2022-08-21T07:45:38;6.08;;;3.10;;
32872;SDS011;19224;52.462;16.898;2022-08-21T07:48:08;7.37;;;3.22;;
32872;SDS011;19224;52.462;16.898;2022-08-21T07:50:39;3.87;;;2.65;;
32872;SDS011;19224;52.462;16.898;2022-08-21T07:53:09;5.55;;;2.75;;
32872;SDS011;19224;52.462;16.898;2022-08-21T07:55:39;4.90;;;2.67;;
32872;SDS011;19224;52.462;16.898;2022-08-21T07:58:11;6.05;;;2.60;;
32872;SDS011;19224;52.462;16.898;2022-08-21T08:00:41;3.98;;;2.70;;
32872;SDS011;19224;52.462;16.898;2022-08-21T08:03:11;6.35;;;2.50;;
32872;SDS011;19224;52.462;16.898;2022-08-21T08:05:41;4.75;;;2.90;;
32872;SDS011;19224;52.462;16.898;2022-08-21T08:08:11;3.25;;;2.60;;
32872;SDS011;19224;52.462;16.898;2022-08-21T08:10:43;3.87;;;2.62;;
32872;SDS011;19224;52.462;16.898;2022-08-21T08:13:14;3.83;;;2.42;;
32872;SDS011;19224;52.462;16.898;2022-08-21T08:15:46;9.13;;;5.60;;
32872;SDS011;19224;52.462;16.898;2022-08-21T08:18:17;6.47;;;2.85;;
32872;SDS011;19224;52.462;16.898;2022-08-21T08:20:48;5.15;;;2.87;;
32872;SDS011;19224;52.462;16.898;2022-08-21T08:23:18;3.67;;;2.58;;
32872;SDS011;19224;52.462;16.898;2022-08-21T08:25:48;3.30;;;2.70;;
32872;SDS011;19224;52.462;16.898;2022-08-21T08:28:18;2.72;;;2.25;;
32872;SDS011;19224;52.462;16.898;2022-08-21T08:30:49;3.42;;;2.50;;
32872;SDS011;19224;52.462;16.898;2022-08-21T08:33:20;5.80;;;3.10;;
32872;SDS011;19224;52.462;16.898;2022-08-21T08:35:50;6.47;;;3.10;;
32872;SDS011;19224;52.462;16.898;2022-08-21T08:38:21;3.50;;;2.65;;
32872;SDS011;19224;52.462;16.898;2022-08-21T08:43:50;4.87;;;3.10;;
32872;SDS011;19224;52.462;16.898;2022-08-21T08:46:30;5.25;;;3.20;;
32872;SDS011;19224;52.462;16.898;2022-08-21T08:49:18;4.85;;;3.33;;
32872;SDS011;19224;52.462;16.898;2022-08-21T08:51:58;4.47;;;3.40;;
32872;SDS011;19224;52.462;16.898;2022-08-21T08:55:01;5.30;;;3.22;;
32872;SDS011;19224;52.462;16.898;2022-08-21T08:57:33;6.35;;;2.92;;
32872;SDS011;19224;52.462;16.898;2022-08-21T09:00:07;6.00;;;3.30;;
32872;SDS011;19224;52.462;16.898;2022-08-21T09:02:40;5.90;;;3.27;;
32872;SDS011;19224;52.462;16.898;2022-08-21T09:05:28;5.47;;;3.42;;
32872;SDS011;19224;52.462;16.898;2022-08-21T09:08:02;5.22;;;3.58;;
32872;SDS011;19224;52.462;16.898;2022-08-21T09:16:52;5.47;;;4.17;;
32872;SDS011;19224;52.462;16.898;2022-08-21T09:23:00;6.35;;;4.10;;
32872;SDS011;19224;52.462;16.898;2022-08-21T09:25:32;6.58;;;4.03;;
32872;SDS011;19224;52.462;16.898;2022-08-21T09:28:20;5.53;;;4.15;;
32872;SDS011;19224;52.462;16.898;2022-08-21T09:30:51;6.78;;;3.92;;
32872;SDS011;19224;52.462;16.898;2022-08-21T09:33:26;5.17;;;3.85;;
32872;SDS011;19224;52.462;16.898;2022-08-21T09:35:56;6.97;;;3.92;;
32872;SDS011;19224;52.462;16.898;2022-08-21T09:38:31;7.53;;;4.03;;
32872;SDS011;19224;52.462;16.898;2022-08-21T09:41:09;4.50;;;3.98;;
32872;SDS011;19224;52.462;16.898;2022-08-21T09:43:40;4.85;;;4.10;;
32872;SDS011;19224;52.462;16.898;2022-08-21T09:46:22;5.05;;;3.92;;
32872;SDS011;19224;52.462;16.898;2022-08-21T09:48:57;5.92;;;4.55;;
32872;SDS011;19224;52.462;16.898;2022-08-21T09:51:32;4.42;;;3.77;;
32872;SDS011;19224;52.462;16.898;2022-08-21T09:56:53;5.35;;;4.03;;
32872;SDS011;19224;52.462;16.898;2022-08-21T09:59:49;4.45;;;3.95;;
32872;SDS011;19224;52.462;16.898;2022-08-21T10:05:01;5.45;;;4.37;;
32872;SDS011;19224;52.462;16.898;2022-08-21T10:07:37;4.10;;;3.42;;
32872;SDS011;19224;52.462;16.898;2022-08-21T10:10:13;4.17;;;3.75;;
32872;SDS011;19224;52.462;16.898;2022-08-21T10:16:10;4.75;;;4.10;;
32872;SDS011;19224;52.462;16.898;2022-08-21T10:36:39;4.70;;;3.52;;
32872;SDS011;19224;52.462;16.898;2022-08-21T10:42:12;3.83;;;3.40;;
32872;SDS011;19224;52.462;16.898;2022-08-21T10:45:15;3.95;;;3.22;;
32872;SDS011;19224;52.462;16.898;2022-08-21T10:47:48;3.12;;;2.85;;
32872;SDS011;19224;52.462;16.898;2022-08-21T10:50:35;6.20;;;3.08;;
32872;SDS011;19224;52.462;16.898;2022-08-21T10:53:16;3.20;;;2.90;;
32872;SDS011;19224;52.462;16.898;2022-08-21T10:56:22;4.22;;;3.67;;
32872;SDS011;19224;52.462;16.898;2022-08-21T11:02:09;3.08;;;2.80;;
32872;SDS011;19224;52.462;16.898;2022-08-21T11:04:55;5.28;;;3.50;;
32872;SDS011;19224;52.462;16.898;2022-08-21T11:07:46;3.30;;;2.80;;
32872;SDS011;19224;52.462;16.898;2022-08-21T11:10:26;2.80;;;2.60;;
32872;SDS011;19224;52.462;16.898;2022-08-21T11:13:19;2.92;;;2.72;;
32872;SDS011;19224;52.462;16.898;2022-08-21T11:16:15;3.37;;;2.40;;
32872;SDS011;19224;52.462;16.898;2022-08-21T11:18:57;2.85;;;2.65;;
32872;SDS011;19224;52.462;16.898;2022-08-21T11:27:33;2.95;;;2.65;;
32872;SDS011;19224;52.462;16.898;2022-08-21T11:30:16;3.33;;;2.75;;
32872;SDS011;19224;52.462;16.898;2022-08-21T11:47:56;2.80;;;2.60;;
32872;SDS011;19224;52.462;16.898;2022-08-21T11:50:37;3.20;;;2.90;;
32872;SDS011;19224;52.462;16.898;2022-08-21T11:53:19;2.83;;;2.50;;
32872;SDS011;19224;52.462;16.898;2022-08-21T11:56:17;3.42;;;3.00;;
32872;SDS011;19224;52.462;16.898;2022-08-21T11:58:48;3.27;;;2.60;;
32872;SDS011;19224;52.462;16.898;2022-08-21T12:01:28;3.27;;;2.62;;
32872;SDS011;19224;52.462;16.898;2022-08-21T12:04:09;3.37;;;2.50;;
32872;SDS011;19224;52.462;16.898;2022-08-21T12:07:10;2.45;;;2.25;;
32872;SDS011;19224;52.462;16.898;2022-08-21T12:09:53;2.55;;;2.25;;
32872;SDS011;19224;52.462;16.898;2022-08-21T12:12:32;2.45;;;2.25;;
32872;SDS011;19224;52.462;16.898;2022-08-21T12:18:03;3.67;;;2.12;;
32872;SDS011;19224;52.462;16.898;2022-08-21T12:23:18;3.20;;;2.10;;
32872;SDS011;19224;52.462;16.898;2022-08-21T12:26:02;3.90;;;2.17;;
32872;SDS011;19224;52.462;16.898;2022-08-21T12:29:03;2.77;;;1.67;;
32872;SDS011;19224;52.462;16.898;2022-08-21T12:34:35;2.08;;;1.70;;
32872;SDS011;19224;52.462;16.898;2022-08-21T12:37:22;1.98;;;1.60;;
32872;SDS011;19224;52.462;16.898;2022-08-21T12:40:25;2.20;;;1.80;;
32872;SDS011;19224;52.462;16.898;2022-08-21T12:43:01;2.95;;;1.87;;
32872;SDS011;19224;52.462;16.898;2022-08-21T12:45:42;2.60;;;1.70;;
32872;SDS011;19224;52.462;16.898;2022-08-21T12:50:54;2.75;;;2.00;;
32872;SDS011;19224;52.462;16.898;2022-08-21T12:53:53;3.20;;;2.00;;
32872;SDS011;19224;52.462;16.898;2022-08-21T12:56:27;3.45;;;2.00;;
32872;SDS011;19224;52.462;16.898;2022-08-21T12:59:02;3.83;;;2.17;;
32872;SDS011;19224;52.462;16.898;2022-08-21T13:01:39;2.00;;;1.80;;
32872;SDS011;19224;52.462;16.898;2022-08-21T13:04:25;2.42;;;1.72;;
32872;SDS011;19224;52.462;16.898;2022-08-21T13:07:09;1.80;;;1.60;;
32872;SDS011;19224;52.462;16.898;2022-08-21T13:09:49;5.62;;;1.60;;
32872;SDS011;19224;52.462;16.898;2022-08-21T13:12:23;2.45;;;1.70;;
32872;SDS011;19224;52.462;16.898;2022-08-21T13:14:56;3.35;;;1.75;;
32872;SDS011;19224;52.462;16.898;2022-08-21T13:17:30;2.40;;;1.85;;
32872;SDS011;19224;52.462;16.898;2022-08-21T13:20:07;3.70;;;2.33;;
32872;SDS011;19224;52.462;16.898;2022-08-21T13:22:41;5.30;;;1.55;;
32872;SDS011;19224;52.462;16.898;2022-08-21T13:25:13;3.58;;;1.92;;
32872;SDS011;19224;52.462;16.898;2022-08-21T13:28:04;2.12;;;1.80;;
32872;SDS011;19224;52.462;16.898;2022-08-21T13:30:42;1.98;;;1.57;;
32872;SDS011;19224;52.462;16.898;2022-08-21T13:33:23;1.35;;;1.25;;
32872;SDS011;19224;52.462;16.898;2022-08-21T13:36:03;2.83;;;1.45;;
32872;SDS011;19224;52.462;16.898;2022-08-21T13:38:42;1.57;;;1.42;;
32872;SDS011;19224;52.462;16.898;2022-08-21T13:43:58;1.90;;;1.40;;
32872;SDS011;19224;52.462;16.898;2022-08-21T13:46:35;2.30;;;1.40;;
32872;SDS011;19224;52.462;16.898;2022-08-21T13:49:06;3.27;;;1.60;;
32872;SDS011;19224;52.462;16.898;2022-08-21T13:51:40;1.82;;;1.62;;
32872;SDS011;19224;52.462;16.898;2022-08-21T13:54:25;2.22;;;1.42;;
32872;SDS011;19224;52.462;16.898;2022-08-21T13:57:04;2.15;;;1.67;;
32872;SDS011;19224;52.462;16.898;2022-08-21T13:59:48;3.08;;;1.75;;
32872;SDS011;19224;52.462;16.898;2022-08-21T14:02:19;3.25;;;1.72;;
32872;SDS011;19224;52.462;16.898;2022-08-21T14:04:58;5.58;;;1.70;;
32872;SDS011;19224;52.462;16.898;2022-08-21T14:07:31;5.10;;;2.35;;
32872;SDS011;19224;52.462;16.898;2022-08-21T14:10:13;2.77;;;1.70;;
32872;SDS011;19224;52.462;16.898;2022-08-21T14:12:50;2.45;;;1.70;;
32872;SDS011;19224;52.462;16.898;2022-08-21T14:15:35;3.05;;;1.80;;
32872;SDS011;19224;52.462;16.898;2022-08-21T14:18:17;2.55;;;1.60;;
32872;SDS011;19224;52.462;16.898;2022-08-21T14:20:47;1.98;;;1.67;;
32872;SDS011;19224;52.462;16.898;2022-08-21T14:23:25;2.95;;;1.65;;
32872;SDS011;19224;52.462;16.898;2022-08-21T14:25:58;2.50;;;2.10;;
32872;SDS011;19224;52.462;16.898;2022-08-21T14:28:37;2.52;;;1.70;;
32872;SDS011;19224;52.462;16.898;2022-08-21T14:31:15;3.05;;;1.50;;
32872;SDS011;19224;52.462;16.898;2022-08-21T14:33:48;2.77;;;1.40;;
32872;SDS011;19224;52.462;16.898;2022-08-21T14:36:18;3.87;;;2.62;;
32872;SDS011;19224;52.462;16.898;2022-08-21T14:38:48;5.40;;;1.82;;
32872;SDS011;19224;52.462;16.898;2022-08-21T14:41:21;2.98;;;1.70;;
32872;SDS011;19224;52.462;16.898;2022-08-21T14:43:55;2.12;;;1.50;;
32872;SDS011;19224;52.462;16.898;2022-08-21T14:46:27;3.77;;;1.70;;
32872;SDS011;19224;52.462;16.898;2022-08-21T14:48:59;4.58;;;1.65;;
32872;SDS011;19224;52.462;16.898;2022-08-21T14:51:30;3.25;;;1.60;;
32872;SDS011;19224;52.462;16.898;2022-08-21T14:54:01;3.10;;;1.85;;
32872;SDS011;19224;52.462;16.898;2022-08-21T14:56:31;2.60;;;1.82;;
32872;SDS011;19224;52.462;16.898;2022-08-21T14:59:04;2.95;;;1.70;;
32872;SDS011;19224;52.462;16.898;2022-08-21T15:01:37;2.58;;;1.70;;
32872;SDS011;19224;52.462;16.898;2022-08-21T15:04:08;4.12;;;1.85;;
32872;SDS011;19224;52.462;16.898;2022-08-21T15:06:38;2.80;;;1.82;;
32872;SDS011;19224;52.462;16.898;2022-08-21T15:09:08;1.98;;;1.80;;
32872;SDS011;19224;52.462;16.898;2022-08-21T15:11:38;5.28;;;2.10;;
32872;SDS011;19224;52.462;16.898;2022-08-21T15:14:10;3.62;;;2.00;;
32872;SDS011;19224;52.462;16.898;2022-08-21T15:16:56;2.67;;;1.77;;
32872;SDS011;19224;52.462;16.898;2022-08-21T15:19:27;4.53;;;2.40;;
32872;SDS011;19224;52.462;16.898;2022-08-21T15:21:57;4.28;;;1.92;;
32872;SDS011;19224;52.462;16.898;2022-08-21T15:24:28;3.33;;;1.85;;
32872;SDS011;19224;52.462;16.898;2022-08-21T15:26:59;2.33;;;1.55;;
32872;SDS011;19224;52.462;16.898;2022-08-21T15:29:32;3.67;;;1.90;;
32872;SDS011;19224;52.462;16.898;2022-08-21T15:34:51;4.53;;;1.75;;
32872;SDS011;19224;52.462;16.898;2022-08-21T15:37:26;4.50;;;1.80;;
32872;SDS011;19224;52.462;16.898;2022-08-21T15:39:56;3.70;;;1.47;;
32872;SDS011;19224;52.462;16.898;2022-08-21T15:42:27;3.30;;;1.77;;
32872;SDS011;19224;52.462;16.898;2022-08-21T15:44:57;2.40;;;1.52;;
32872;SDS011;19224;52.462;16.898;2022-08-21T15:47:29;4.50;;;1.75;;
32872;SDS011;19224;52.462;16.898;2022-08-21T15:50:03;4.45;;;1.60;;
32872;SDS011;19224;52.462;16.898;2022-08-21T15:52:36;5.87;;;1.62;;
32872;SDS011;19224;52.462;16.898;2022-08-21T15:55:08;3.42;;;1.70;;
32872;SDS011;19224;52.462;16.898;2022-08-21T15:57:42;4.85;;;1.80;;
32872;SDS011;19224;52.462;16.898;2022-08-21T16:00:19;4.35;;;2.00;;
32872;SDS011;19224;52.462;16.898;2022-08-21T16:02:55;5.42;;;1.72;;
32872;SDS011;19224;52.462;16.898;2022-08-21T16:05:27;5.05;;;1.72;;
32872;SDS011;19224;52.462;16.898;2022-08-21T16:08:00;4.80;;;1.67;;
32872;SDS011;19224;52.462;16.898;2022-08-21T16:10:31;4.05;;;2.00;;
32872;SDS011;19224;52.462;16.898;2022-08-21T16:13:04;3.10;;;1.72;;
32872;SDS011;19224;52.462;16.898;2022-08-21T16:15:37;4.67;;;1.90;;
32872;SDS011;19224;52.462;16.898;2022-08-21T16:18:09;4.22;;;1.95;;
32872;SDS011;19224;52.462;16.898;2022-08-21T16:20:39;4.42;;;1.90;;
32872;SDS011;19224;52.462;16.898;2022-08-21T16:23:10;4.97;;;2.17;;
32872;SDS011;19224;52.462;16.898;2022-08-21T16:25:40;4.60;;;2.00;;
32872;SDS011;19224;52.462;16.898;2022-08-21T16:28:13;3.95;;;1.95;;
32872;SDS011;19224;52.462;16.898;2022-08-21T16:30:48;7.80;;;2.77;;
32872;SDS011;19224;52.462;16.898;2022-08-21T16:33:21;3.72;;;1.95;;
32872;SDS011;19224;52.462;16.898;2022-08-21T16:36:00;7.87;;;2.10;;